sensor_id;sensor_type;location;lat;lon;timestamp;pressure;altitude;pressure_sealevel;temperature;humidity
43119;BME280;28729;49.838;8.650;2022-10-16T00:01:54;99519.25;;;16.41;100.00
43119;BME280;28729;49.838;8.650;2022-10-16T00:05:59;99503.16;;;16.38;100.00
43119;BME280;28729;49.838;8.650;2022-10-16T00:10:01;99499.34;;;16.34;100.00
43119;BME280;28729;49.838;8.650;2022-10-16T00:14:07;99514.59;;;16.36;100.00
43119;BME280;28729;49.838;8.650;2022-10-16T00:18:09;99519.09;;;16.32;100.00
43119;BME280;28729;49.838;8.650;2022-10-16T00:22:11;99525.47;;;16.33;100.00
43119;BME280;28729;49.838;8.650;2022-10-16T00:26:15;99527.72;;;16.31;100.00
43119;BME280;28729;49.838;8.650;2022-10-16T00:30:17;99510.03;;;16.22;100.00
43119;BME280;28729;49.838;8.650;2022-10-16T00:34:18;99522.84;;;16.17;100.00
43119;BME280;28729;49.838;8.650;2022-10-16T00:38:20;99517.88;;;16.14;100.00
43119;BME280;28729;49.838;8.650;2022-10-16T00:42:22;99528.75;;;16.11;100.00
43119;BME280;28729;49.838;8.650;2022-10-16T00:46:27;99513.25;;;16.05;100.00
43119;BME280;28729;49.838;8.650;2022-10-16T00:50:32;99519.19;;;15.98;100.00
43119;BME280;28729;49.838;8.650;2022-10-16T00:54:34;99526.97;;;15.96;100.00
43119;BME280;28729;49.838;8.650;2022-10-16T00:58:36;99534.25;;;15.92;100.00
43119;BME280;28729;49.838;8.650;2022-10-16T01:02:38;99539.25;;;15.90;100.00
43119;BME280;28729;49.838;8.650;2022-10-16T01:06:56;99539.00;;;15.86;100.00
43119;BME280;28729;49.838;8.650;2022-10-16T01:15:37;99537.63;;;15.84;100.00
43119;BME280;28729;49.838;8.650;2022-10-16T01:20:04;99536.28;;;15.81;100.00
43119;BME280;28729;49.838;8.650;2022-10-16T01:24:15;99537.91;;;15.82;100.00
43119;BME280;28729;49.838;8.650;2022-10-16T01:28:24;99548.19;;;15.82;100.00
43119;BME280;28729;49.838;8.650;2022-10-16T01:36:56;99535.09;;;15.87;100.00
43119;BME280;28729;49.838;8.650;2022-10-16T01:41:06;99530.63;;;15.91;100.00
43119;BME280;28729;49.838;8.650;2022-10-16T01:45:11;99539.50;;;15.93;100.00
43119;BME280;28729;49.838;8.650;2022-10-16T01:49:15;99550.03;;;15.97;100.00
43119;BME280;28729;49.838;8.650;2022-10-16T01:53:20;99563.31;;;16.00;100.00
43119;BME280;28729;49.838;8.650;2022-10-16T01:57:24;99572.75;;;16.04;100.00
43119;BME280;28729;49.838;8.650;2022-10-16T02:01:28;99573.28;;;16.06;100.00
43119;BME280;28729;49.838;8.650;2022-10-16T02:06:00;99571.59;;;16.10;100.00
43119;BME280;28729;49.838;8.650;2022-10-16T02:10:01;99571.59;;;16.10;100.00
43119;BME280;28729;49.838;8.650;2022-10-16T02:14:05;99562.34;;;16.14;100.00
43119;BME280;28729;49.838;8.650;2022-10-16T02:18:08;99563.19;;;16.15;100.00
43119;BME280;28729;49.838;8.650;2022-10-16T02:22:18;99559.53;;;16.20;100.00
43119;BME280;28729;49.838;8.650;2022-10-16T02:26:28;99548.13;;;16.21;100.00
43119;BME280;28729;49.838;8.650;2022-10-16T02:34:37;99553.03;;;16.29;100.00
43119;BME280;28729;49.838;8.650;2022-10-16T02:38:40;99551.94;;;16.30;100.00
43119;BME280;28729;49.838;8.650;2022-10-16T02:42:42;99552.44;;;16.32;100.00
43119;BME280;28729;49.838;8.650;2022-10-16T02:46:44;99560.78;;;16.32;100.00
43119;BME280;28729;49.838;8.650;2022-10-16T02:50:46;99566.63;;;16.36;100.00
43119;BME280;28729;49.838;8.650;2022-10-16T02:54:47;99567.44;;;16.36;100.00
43119;BME280;28729;49.838;8.650;2022-10-16T02:58:49;99562.97;;;16.35;100.00
43119;BME280;28729;49.838;8.650;2022-10-16T03:02:51;99575.78;;;16.36;100.00
43119;BME280;28729;49.838;8.650;2022-10-16T03:06:53;99579.06;;;16.38;100.00
43119;BME280;28729;49.838;8.650;2022-10-16T03:10:54;99583.22;;;16.41;100.00
43119;BME280;28729;49.838;8.650;2022-10-16T03:14:56;99577.91;;;16.45;100.00
43119;BME280;28729;49.838;8.650;2022-10-16T03:18:58;99582.88;;;16.48;100.00
43119;BME280;28729;49.838;8.650;2022-10-16T03:22:59;99590.63;;;16.51;100.00
43119;BME280;28729;49.838;8.650;2022-10-16T03:27:01;99585.31;;;16.54;100.00
43119;BME280;28729;49.838;8.650;2022-10-16T03:31:03;99589.53;;;16.52;100.00
43119;BME280;28729;49.838;8.650;2022-10-16T03:35:05;99585.59;;;16.53;100.00
43119;BME280;28729;49.838;8.650;2022-10-16T03:39:07;99586.19;;;16.50;100.00
43119;BME280;28729;49.838;8.650;2022-10-16T03:43:08;99582.81;;;16.53;100.00
43119;BME280;28729;49.838;8.650;2022-10-16T03:47:10;99583.66;;;16.53;100.00
43119;BME280;28729;49.838;8.650;2022-10-16T03:51:12;99599.75;;;16.56;100.00
43119;BME280;28729;49.838;8.650;2022-10-16T03:55:13;99596.13;;;16.56;100.00
43119;BME280;28729;49.838;8.650;2022-10-16T03:59:15;99595.03;;;16.57;100.00
43119;BME280;28729;49.838;8.650;2022-10-16T04:03:16;99608.94;;;16.57;100.00
43119;BME280;28729;49.838;8.650;2022-10-16T04:07:20;99620.91;;;16.57;100.00
43119;BME280;28729;49.838;8.650;2022-10-16T04:11:22;99590.56;;;16.56;100.00
43119;BME280;28729;49.838;8.650;2022-10-16T04:15:24;99593.94;;;16.53;100.00
43119;BME280;28729;49.838;8.650;2022-10-16T04:19:26;99601.22;;;16.49;100.00
43119;BME280;28729;49.838;8.650;2022-10-16T04:23:28;99596.25;;;16.46;100.00
43119;BME280;28729;49.838;8.650;2022-10-16T04:27:30;99614.06;;;16.45;100.00
43119;BME280;28729;49.838;8.650;2022-10-16T04:31:33;99610.69;;;16.48;100.00
43119;BME280;28729;49.838;8.650;2022-10-16T04:35:34;99612.34;;;16.49;100.00
43119;BME280;28729;49.838;8.650;2022-10-16T04:39:36;99593.72;;;16.49;100.00
43119;BME280;28729;49.838;8.650;2022-10-16T04:43:38;99605.13;;;16.48;100.00
43119;BME280;28729;49.838;8.650;2022-10-16T04:47:39;99609.03;;;16.47;100.00
43119;BME280;28729;49.838;8.650;2022-10-16T04:51:41;99598.50;;;16.44;100.00
43119;BME280;28729;49.838;8.650;2022-10-16T04:55:43;99606.28;;;16.41;100.00
43119;BME280;28729;49.838;8.650;2022-10-16T04:59:45;99603.03;;;16.34;100.00
43119;BME280;28729;49.838;8.650;2022-10-16T05:03:46;99618.66;;;16.30;100.00
43119;BME280;28729;49.838;8.650;2022-10-16T05:07:48;99604.75;;;16.30;100.00
43119;BME280;28729;49.838;8.650;2022-10-16T05:11:51;99605.94;;;16.24;100.00
43119;BME280;28729;49.838;8.650;2022-10-16T05:15:52;99592.06;;;16.19;100.00
43119;BME280;28729;49.838;8.650;2022-10-16T05:19:54;99613.75;;;16.17;100.00
43119;BME280;28729;49.838;8.650;2022-10-16T05:23:56;99606.84;;;16.14;100.00
43119;BME280;28729;49.838;8.650;2022-10-16T05:27:58;99603.53;;;16.12;100.00
43119;BME280;28729;49.838;8.650;2022-10-16T05:32:00;99612.72;;;16.08;100.00
43119;BME280;28729;49.838;8.650;2022-10-16T05:36:06;99608.34;;;16.02;100.00
43119;BME280;28729;49.838;8.650;2022-10-16T05:40:09;99610.91;;;15.93;100.00
43119;BME280;28729;49.838;8.650;2022-10-16T05:44:12;99630.41;;;15.88;100.00
43119;BME280;28729;49.838;8.650;2022-10-16T05:48:14;99633.47;;;15.86;100.00
43119;BME280;28729;49.838;8.650;2022-10-16T05:52:16;99618.47;;;15.87;100.00
43119;BME280;28729;49.838;8.650;2022-10-16T05:56:17;99634.53;;;15.90;100.00
43119;BME280;28729;49.838;8.650;2022-10-16T06:00:19;99645.09;;;15.93;100.00
43119;BME280;28729;49.838;8.650;2022-10-16T06:04:21;99657.31;;;15.98;100.00
43119;BME280;28729;49.838;8.650;2022-10-16T06:08:23;99658.38;;;16.02;100.00
43119;BME280;28729;49.838;8.650;2022-10-16T06:12:26;99657.22;;;16.08;100.00
43119;BME280;28729;49.838;8.650;2022-10-16T06:16:28;99665.50;;;16.13;100.00
43119;BME280;28729;49.838;8.650;2022-10-16T06:20:30;99675.47;;;16.19;100.00
43119;BME280;28729;49.838;8.650;2022-10-16T06:24:32;99665.13;;;16.25;100.00
43119;BME280;28729;49.838;8.650;2022-10-16T06:28:34;99662.28;;;16.30;100.00
43119;BME280;28729;49.838;8.650;2022-10-16T06:32:35;99674.50;;;16.34;100.00
43119;BME280;28729;49.838;8.650;2022-10-16T06:36:38;99658.06;;;16.37;100.00
43119;BME280;28729;49.838;8.650;2022-10-16T06:40:39;99667.22;;;16.38;100.00
43119;BME280;28729;49.838;8.650;2022-10-16T06:44:41;99670.84;;;16.38;100.00
43119;BME280;28729;49.838;8.650;2022-10-16T06:48:44;99665.25;;;16.44;100.00
43119;BME280;28729;49.838;8.650;2022-10-16T06:52:45;99681.34;;;16.47;100.00
43119;BME280;28729;49.838;8.650;2022-10-16T06:56:47;99699.06;;;16.56;100.00
43119;BME280;28729;49.838;8.650;2022-10-16T07:00:55;99702.59;;;16.67;100.00
43119;BME280;28729;49.838;8.650;2022-10-16T07:04:57;99694.97;;;16.77;100.00
43119;BME280;28729;49.838;8.650;2022-10-16T07:09:02;99691.88;;;16.84;100.00
43119;BME280;28729;49.838;8.650;2022-10-16T07:13:04;99701.00;;;16.90;100.00
43119;BME280;28729;49.838;8.650;2022-10-16T07:17:08;99709.78;;;17.02;100.00
43119;BME280;28729;49.838;8.650;2022-10-16T07:25:17;99720.19;;;17.15;100.00
43119;BME280;28729;49.838;8.650;2022-10-16T07:29:21;99732.88;;;17.26;100.00
43119;BME280;28729;49.838;8.650;2022-10-16T07:33:25;99738.25;;;17.42;100.00
43119;BME280;28729;49.838;8.650;2022-10-16T07:37:26;99741.75;;;17.52;100.00
43119;BME280;28729;49.838;8.650;2022-10-16T07:41:28;99746.44;;;17.57;100.00
43119;BME280;28729;49.838;8.650;2022-10-16T07:45:30;99750.91;;;17.58;100.00
43119;BME280;28729;49.838;8.650;2022-10-16T07:49:32;99750.34;;;17.56;100.00
43119;BME280;28729;49.838;8.650;2022-10-16T07:53:33;99757.50;;;17.62;100.00
43119;BME280;28729;49.838;8.650;2022-10-16T07:57:35;99760.25;;;17.67;100.00
43119;BME280;28729;49.838;8.650;2022-10-16T08:01:37;99755.72;;;17.71;100.00
43119;BME280;28729;49.838;8.650;2022-10-16T08:05:39;99767.63;;;17.77;100.00
43119;BME280;28729;49.838;8.650;2022-10-16T08:09:41;99768.97;;;17.85;100.00
43119;BME280;28729;49.838;8.650;2022-10-16T08:13:43;99774.63;;;17.98;100.00
43119;BME280;28729;49.838;8.650;2022-10-16T08:17:44;99777.19;;;18.14;100.00
43119;BME280;28729;49.838;8.650;2022-10-16T08:21:55;99779.25;;;18.27;100.00
43119;BME280;28729;49.838;8.650;2022-10-16T08:26:02;99789.19;;;18.33;100.00
43119;BME280;28729;49.838;8.650;2022-10-16T08:30:04;99812.94;;;18.31;100.00
43119;BME280;28729;49.838;8.650;2022-10-16T08:34:06;99828.97;;;18.20;100.00
43119;BME280;28729;49.838;8.650;2022-10-16T08:38:09;99864.00;;;18.07;100.00
43119;BME280;28729;49.838;8.650;2022-10-16T08:52:50;99861.81;;;17.27;100.00
43119;BME280;28729;49.838;8.650;2022-10-16T08:56:57;99864.16;;;17.15;100.00
43119;BME280;28729;49.838;8.650;2022-10-16T09:01:13;99870.09;;;17.03;100.00
43119;BME280;28729;49.838;8.650;2022-10-16T09:10:59;99866.59;;;17.21;100.00
43119;BME280;28729;49.838;8.650;2022-10-16T09:15:26;99878.09;;;17.44;100.00
43119;BME280;28729;49.838;8.650;2022-10-16T09:19:36;99883.88;;;17.76;100.00
43119;BME280;28729;49.838;8.650;2022-10-16T09:23:39;99877.41;;;18.05;100.00
43119;BME280;28729;49.838;8.650;2022-10-16T09:27:42;99892.84;;;18.21;100.00
43119;BME280;28729;49.838;8.650;2022-10-16T09:31:46;99890.66;;;18.37;100.00
43119;BME280;28729;49.838;8.650;2022-10-16T09:35:53;99890.19;;;18.73;100.00
43119;BME280;28729;49.838;8.650;2022-10-16T09:39:55;99900.81;;;18.90;100.00
43119;BME280;28729;49.838;8.650;2022-10-16T09:44:01;99901.09;;;19.07;100.00
43119;BME280;28729;49.838;8.650;2022-10-16T09:48:13;99906.09;;;19.43;100.00
43119;BME280;28729;49.838;8.650;2022-10-16T09:52:21;99896.75;;;19.80;100.00
43119;BME280;28729;49.838;8.650;2022-10-16T09:56:34;99905.25;;;19.89;100.00
43119;BME280;28729;49.838;8.650;2022-10-16T10:00:49;99906.94;;;19.90;100.00
43119;BME280;28729;49.838;8.650;2022-10-16T10:04:53;99902.66;;;20.07;100.00
43119;BME280;28729;49.838;8.650;2022-10-16T10:09:15;99906.19;;;20.26;100.00
43119;BME280;28729;49.838;8.650;2022-10-16T10:13:22;99911.97;;;20.43;100.00
43119;BME280;28729;49.838;8.650;2022-10-16T10:17:27;99914.03;;;20.52;100.00
43119;BME280;28729;49.838;8.650;2022-10-16T10:56:59;99907.66;;;21.32;100.00
43119;BME280;28729;49.838;8.650;2022-10-16T11:01:16;99902.13;;;21.19;100.00
43119;BME280;28729;49.838;8.650;2022-10-16T11:09:34;99901.09;;;21.91;100.00
43119;BME280;28729;49.838;8.650;2022-10-16T11:13:53;99906.31;;;22.15;100.00
43119;BME280;28729;49.838;8.650;2022-10-16T11:18:11;99907.91;;;22.07;100.00
43119;BME280;28729;49.838;8.650;2022-10-16T11:22:39;99899.63;;;22.42;100.00
43119;BME280;28729;49.838;8.650;2022-10-16T11:26:43;99907.31;;;22.85;100.00
43119;BME280;28729;49.838;8.650;2022-10-16T11:30:59;99908.31;;;23.15;100.00
43119;BME280;28729;49.838;8.650;2022-10-16T11:35:11;99916.09;;;23.18;100.00
43119;BME280;28729;49.838;8.650;2022-10-16T11:39:21;99912.31;;;22.96;100.00
43119;BME280;28729;49.838;8.650;2022-10-16T11:43:33;99911.06;;;22.63;100.00
43119;BME280;28729;49.838;8.650;2022-10-16T11:47:42;99917.63;;;22.32;100.00
43119;BME280;28729;49.838;8.650;2022-10-16T11:52:16;99913.47;;;21.90;100.00
43119;BME280;28729;49.838;8.650;2022-10-16T11:56:20;99904.09;;;21.63;100.00
43119;BME280;28729;49.838;8.650;2022-10-16T12:00:29;99899.19;;;22.08;100.00
43119;BME280;28729;49.838;8.650;2022-10-16T12:04:49;99893.28;;;22.93;100.00
43119;BME280;28729;49.838;8.650;2022-10-16T12:08:54;99885.06;;;23.61;100.00
43119;BME280;28729;49.838;8.650;2022-10-16T12:12:56;99892.19;;;24.15;100.00
43119;BME280;28729;49.838;8.650;2022-10-16T12:21:30;99894.31;;;25.19;99.62
43119;BME280;28729;49.838;8.650;2022-10-16T12:25:39;99890.19;;;25.37;96.50
43119;BME280;28729;49.838;8.650;2022-10-16T12:29:54;99886.19;;;26.08;84.04
43119;BME280;28729;49.838;8.650;2022-10-16T12:34:02;99900.47;;;26.24;83.14
43119;BME280;28729;49.838;8.650;2022-10-16T12:38:07;99899.50;;;25.96;87.09
43119;BME280;28729;49.838;8.650;2022-10-16T12:42:31;99897.59;;;25.87;82.92
43119;BME280;28729;49.838;8.650;2022-10-16T12:46:38;99899.06;;;24.85;85.21
43119;BME280;28729;49.838;8.650;2022-10-16T12:50:40;99904.22;;;24.24;91.73
43119;BME280;28729;49.838;8.650;2022-10-16T12:54:42;99907.03;;;24.24;90.40
43119;BME280;28729;49.838;8.650;2022-10-16T13:03:37;99900.56;;;23.94;93.29
43119;BME280;28729;49.838;8.650;2022-10-16T13:07:53;99900.09;;;23.92;93.14
43119;BME280;28729;49.838;8.650;2022-10-16T13:21:10;99913.94;;;23.41;95.49
43119;BME280;28729;49.838;8.650;2022-10-16T13:25:23;99920.22;;;23.20;97.00
43119;BME280;28729;49.838;8.650;2022-10-16T13:29:33;99908.63;;;22.79;99.98
43119;BME280;28729;49.838;8.650;2022-10-16T13:37:38;99915.34;;;22.03;100.00
43119;BME280;28729;49.838;8.650;2022-10-16T13:41:40;99916.06;;;21.77;100.00
43119;BME280;28729;49.838;8.650;2022-10-16T13:45:52;99923.22;;;21.61;100.00
43119;BME280;28729;49.838;8.650;2022-10-16T13:50:01;99929.88;;;21.43;100.00
43119;BME280;28729;49.838;8.650;2022-10-16T13:54:09;99929.72;;;21.25;100.00
43119;BME280;28729;49.838;8.650;2022-10-16T13:58:14;99916.59;;;21.12;100.00
43119;BME280;28729;49.838;8.650;2022-10-16T14:06:26;99920.53;;;20.88;100.00
43119;BME280;28729;49.838;8.650;2022-10-16T14:10:30;99921.66;;;20.87;100.00
43119;BME280;28729;49.838;8.650;2022-10-16T14:14:40;99918.72;;;20.92;100.00
43119;BME280;28729;49.838;8.650;2022-10-16T14:18:46;99915.81;;;20.98;100.00
43119;BME280;28729;49.838;8.650;2022-10-16T14:23:32;99909.66;;;21.09;100.00
43119;BME280;28729;49.838;8.650;2022-10-16T14:27:36;99905.75;;;21.19;100.00
43119;BME280;28729;49.838;8.650;2022-10-16T14:31:38;99897.88;;;21.21;100.00
43119;BME280;28729;49.838;8.650;2022-10-16T14:35:41;99894.56;;;21.19;100.00
43119;BME280;28729;49.838;8.650;2022-10-16T14:39:49;99906.00;;;21.09;100.00
43119;BME280;28729;49.838;8.650;2022-10-16T14:43:54;99903.47;;;20.99;100.00
43119;BME280;28729;49.838;8.650;2022-10-16T14:48:00;99910.31;;;20.92;100.00
43119;BME280;28729;49.838;8.650;2022-10-16T14:52:12;99906.94;;;20.82;100.00
43119;BME280;28729;49.838;8.650;2022-10-16T14:56:17;99899.16;;;20.79;100.00
43119;BME280;28729;49.838;8.650;2022-10-16T15:00:22;99904.56;;;20.75;100.00
43119;BME280;28729;49.838;8.650;2022-10-16T15:04:24;99900.13;;;20.74;100.00
43119;BME280;28729;49.838;8.650;2022-10-16T15:08:29;99901.13;;;20.78;100.00
43119;BME280;28729;49.838;8.650;2022-10-16T15:12:33;99901.66;;;20.80;100.00
43119;BME280;28729;49.838;8.650;2022-10-16T15:16:35;99903.41;;;20.76;100.00
43119;BME280;28729;49.838;8.650;2022-10-16T15:20:38;99910.59;;;20.82;100.00
43119;BME280;28729;49.838;8.650;2022-10-16T15:24:40;99915.63;;;20.94;100.00
43119;BME280;28729;49.838;8.650;2022-10-16T15:28:41;99913.66;;;20.94;100.00
43119;BME280;28729;49.838;8.650;2022-10-16T15:32:43;99918.72;;;20.92;100.00
43119;BME280;28729;49.838;8.650;2022-10-16T15:36:45;99920.81;;;20.87;100.00
43119;BME280;28729;49.838;8.650;2022-10-16T15:40:48;99927.31;;;20.74;100.00
43119;BME280;28729;49.838;8.650;2022-10-16T15:44:49;99925.88;;;20.62;100.00
43119;BME280;28729;49.838;8.650;2022-10-16T15:48:56;99943.09;;;20.56;100.00
43119;BME280;28729;49.838;8.650;2022-10-16T15:52:58;99927.94;;;20.43;100.00
43119;BME280;28729;49.838;8.650;2022-10-16T15:57:00;99931.88;;;20.28;100.00
43119;BME280;28729;49.838;8.650;2022-10-16T16:01:02;99937.50;;;20.14;100.00
43119;BME280;28729;49.838;8.650;2022-10-16T16:05:05;99941.22;;;19.96;100.00
43119;BME280;28729;49.838;8.650;2022-10-16T16:09:09;99938.69;;;19.80;100.00
43119;BME280;28729;49.838;8.650;2022-10-16T16:13:10;99935.06;;;19.66;100.00
43119;BME280;28729;49.838;8.650;2022-10-16T16:17:12;99934.53;;;19.45;100.00
43119;BME280;28729;49.838;8.650;2022-10-16T16:21:14;99939.03;;;19.27;100.00
43119;BME280;28729;49.838;8.650;2022-10-16T16:25:16;99942.91;;;19.12;100.00
43119;BME280;28729;49.838;8.650;2022-10-16T16:29:17;99952.06;;;18.99;100.00
43119;BME280;28729;49.838;8.650;2022-10-16T16:33:23;99949.72;;;18.87;100.00
43119;BME280;28729;49.838;8.650;2022-10-16T16:37:28;99944.81;;;18.79;100.00
43119;BME280;28729;49.838;8.650;2022-10-16T16:41:30;99949.38;;;18.70;100.00
43119;BME280;28729;49.838;8.650;2022-10-16T16:45:35;99954.78;;;18.61;100.00
43119;BME280;28729;49.838;8.650;2022-10-16T16:49:37;99953.19;;;18.55;100.00
43119;BME280;28729;49.838;8.650;2022-10-16T16:53:38;99956.66;;;18.47;100.00
43119;BME280;28729;49.838;8.650;2022-10-16T16:57:40;99964.28;;;18.41;100.00
43119;BME280;28729;49.838;8.650;2022-10-16T17:01:42;99959.59;;;18.37;100.00
43119;BME280;28729;49.838;8.650;2022-10-16T17:05:55;99966.31;;;18.36;100.00
43119;BME280;28729;49.838;8.650;2022-10-16T17:09:56;99958.00;;;18.31;100.00
43119;BME280;28729;49.838;8.650;2022-10-16T17:13:59;99966.63;;;18.29;100.00
43119;BME280;28729;49.838;8.650;2022-10-16T17:18:01;99965.81;;;18.29;100.00
43119;BME280;28729;49.838;8.650;2022-10-16T17:22:03;99973.94;;;18.25;100.00
43119;BME280;28729;49.838;8.650;2022-10-16T17:26:16;99973.19;;;18.19;100.00
43119;BME280;28729;49.838;8.650;2022-10-16T17:30:18;99973.31;;;18.09;100.00
43119;BME280;28729;49.838;8.650;2022-10-16T17:34:19;99982.91;;;17.98;100.00
43119;BME280;28729;49.838;8.650;2022-10-16T17:38:21;99982.25;;;17.82;100.00
43119;BME280;28729;49.838;8.650;2022-10-16T17:42:23;99983.19;;;17.67;100.00
43119;BME280;28729;49.838;8.650;2022-10-16T17:46:25;99994.47;;;17.52;100.00
43119;BME280;28729;49.838;8.650;2022-10-16T17:50:27;99997.06;;;17.38;100.00
43119;BME280;28729;49.838;8.650;2022-10-16T17:54:29;99989.66;;;17.23;100.00
43119;BME280;28729;49.838;8.650;2022-10-16T17:58:30;99996.72;;;17.11;100.00
43119;BME280;28729;49.838;8.650;2022-10-16T18:02:32;100001.50;;;17.00;100.00
43119;BME280;28729;49.838;8.650;2022-10-16T18:06:35;100003.25;;;16.91;100.00
43119;BME280;28729;49.838;8.650;2022-10-16T18:10:44;100014.97;;;16.82;100.00
43119;BME280;28729;49.838;8.650;2022-10-16T18:14:46;100013.88;;;16.73;100.00
43119;BME280;28729;49.838;8.650;2022-10-16T18:18:47;100021.72;;;16.66;100.00
43119;BME280;28729;49.838;8.650;2022-10-16T18:22:49;100020.06;;;16.60;100.00
43119;BME280;28729;49.838;8.650;2022-10-16T18:26:53;100014.53;;;16.55;100.00
43119;BME280;28729;49.838;8.650;2022-10-16T18:31:05;100019.81;;;16.51;100.00
43119;BME280;28729;49.838;8.650;2022-10-16T18:35:07;100022.31;;;16.48;100.00
43119;BME280;28729;49.838;8.650;2022-10-16T18:39:10;100022.88;;;16.45;100.00
43119;BME280;28729;49.838;8.650;2022-10-16T18:43:12;100021.81;;;16.40;100.00
43119;BME280;28729;49.838;8.650;2022-10-16T18:47:13;100027.94;;;16.37;100.00
43119;BME280;28729;49.838;8.650;2022-10-16T18:51:18;100018.75;;;16.32;100.00
43119;BME280;28729;49.838;8.650;2022-10-16T18:55:20;100026.28;;;16.31;100.00
43119;BME280;28729;49.838;8.650;2022-10-16T18:59:22;100022.13;;;16.29;100.00
43119;BME280;28729;49.838;8.650;2022-10-16T19:03:23;100023.50;;;16.26;100.00
43119;BME280;28729;49.838;8.650;2022-10-16T19:07:25;100023.81;;;16.25;100.00
43119;BME280;28729;49.838;8.650;2022-10-16T19:11:28;100012.44;;;16.21;100.00
43119;BME280;28729;49.838;8.650;2022-10-16T19:15:30;100018.50;;;16.18;100.00
43119;BME280;28729;49.838;8.650;2022-10-16T19:19:33;100016.88;;;16.17;100.00
43119;BME280;28729;49.838;8.650;2022-10-16T19:23:35;100030.19;;;16.15;100.00
43119;BME280;28729;49.838;8.650;2022-10-16T19:27:36;100029.38;;;16.14;100.00
43119;BME280;28729;49.838;8.650;2022-10-16T19:31:38;100030.19;;;16.15;100.00
43119;BME280;28729;49.838;8.650;2022-10-16T19:35:40;100034.38;;;16.17;100.00
43119;BME280;28729;49.838;8.650;2022-10-16T19:39:42;100040.50;;;16.20;100.00
43119;BME280;28729;49.838;8.650;2022-10-16T19:43:44;100035.19;;;16.18;100.00
43119;BME280;28729;49.838;8.650;2022-10-16T19:47:46;100039.09;;;16.17;100.00
43119;BME280;28729;49.838;8.650;2022-10-16T19:51:48;100044.66;;;16.17;100.00
43119;BME280;28729;49.838;8.650;2022-10-16T19:55:50;100044.97;;;16.15;100.00
43119;BME280;28729;49.838;8.650;2022-10-16T19:59:53;100050.78;;;16.14;100.00
43119;BME280;28729;49.838;8.650;2022-10-16T20:03:55;100053.31;;;16.15;100.00
43119;BME280;28729;49.838;8.650;2022-10-16T20:07:56;100057.72;;;16.22;100.00
43119;BME280;28729;49.838;8.650;2022-10-16T20:11:58;100063.81;;;16.29;100.00
43119;BME280;28729;49.838;8.650;2022-10-16T20:16:02;100073.25;;;16.33;100.00
43119;BME280;28729;49.838;8.650;2022-10-16T20:20:24;100079.69;;;16.33;100.00
43119;BME280;28729;49.838;8.650;2022-10-16T20:24:26;100074.66;;;16.35;100.00
43119;BME280;28729;49.838;8.650;2022-10-16T20:28:28;100070.78;;;16.36;100.00
43119;BME280;28729;49.838;8.650;2022-10-16T20:32:29;100068.25;;;16.35;100.00
43119;BME280;28729;49.838;8.650;2022-10-16T20:36:34;100078.56;;;16.34;100.00
43119;BME280;28729;49.838;8.650;2022-10-16T20:40:38;100076.59;;;16.30;100.00
43119;BME280;28729;49.838;8.650;2022-10-16T20:44:40;100088.59;;;16.30;100.00
43119;BME280;28729;49.838;8.650;2022-10-16T20:48:42;100094.41;;;16.29;100.00
43119;BME280;28729;49.838;8.650;2022-10-16T20:52:45;100090.53;;;16.14;100.00
43119;BME280;28729;49.838;8.650;2022-10-16T20:56:46;100094.16;;;16.05;100.00
43119;BME280;28729;49.838;8.650;2022-10-16T21:00:48;100091.94;;;15.97;100.00
43119;BME280;28729;49.838;8.650;2022-10-16T21:04:49;100100.56;;;15.90;100.00
43119;BME280;28729;49.838;8.650;2022-10-16T21:08:51;100105.59;;;15.83;100.00
43119;BME280;28729;49.838;8.650;2022-10-16T21:12:53;100106.69;;;15.77;100.00
43119;BME280;28729;49.838;8.650;2022-10-16T21:16:55;100102.78;;;15.67;100.00
43119;BME280;28729;49.838;8.650;2022-10-16T21:20:57;100120.81;;;15.60;100.00
43119;BME280;28729;49.838;8.650;2022-10-16T21:24:58;100105.78;;;15.50;100.00
43119;BME280;28729;49.838;8.650;2022-10-16T21:29:03;100117.44;;;15.42;100.00
43119;BME280;28729;49.838;8.650;2022-10-16T21:33:05;100112.16;;;15.41;100.00
43119;BME280;28729;49.838;8.650;2022-10-16T21:37:08;100111.06;;;15.42;100.00
43119;BME280;28729;49.838;8.650;2022-10-16T21:41:13;100111.88;;;15.42;100.00
43119;BME280;28729;49.838;8.650;2022-10-16T21:45:15;100114.66;;;15.42;100.00
43119;BME280;28729;49.838;8.650;2022-10-16T21:49:18;100112.72;;;15.43;100.00
43119;BME280;28729;49.838;8.650;2022-10-16T21:53:19;100111.06;;;15.42;100.00
43119;BME280;28729;49.838;8.650;2022-10-16T21:57:21;100111.88;;;15.42;100.00
43119;BME280;28729;49.838;8.650;2022-10-16T22:01:28;100107.97;;;15.43;100.00
43119;BME280;28729;49.838;8.650;2022-10-16T22:05:32;100107.97;;;15.43;100.00
43119;BME280;28729;49.838;8.650;2022-10-16T22:09:34;100101.34;;;15.44;100.00
43119;BME280;28729;49.838;8.650;2022-10-16T22:13:36;100101.06;;;15.46;100.00
43119;BME280;28729;49.838;8.650;2022-10-16T22:17:39;100108.00;;;15.48;100.00
43119;BME280;28729;49.838;8.650;2022-10-16T22:21:47;100096.63;;;15.50;100.00
43119;BME280;28729;49.838;8.650;2022-10-16T22:25:49;100111.06;;;15.52;100.00
43119;BME280;28729;49.838;8.650;2022-10-16T22:29:51;100110.22;;;15.52;100.00
43119;BME280;28729;49.838;8.650;2022-10-16T22:33:54;100110.78;;;15.54;100.00
43119;BME280;28729;49.838;8.650;2022-10-16T22:37:56;100109.09;;;15.53;100.00
43119;BME280;28729;49.838;8.650;2022-10-16T22:41:58;100113.56;;;15.54;100.00
43119;BME280;28729;49.838;8.650;2022-10-16T22:46:04;100117.44;;;15.53;100.00
43119;BME280;28729;49.838;8.650;2022-10-16T22:50:07;100123.84;;;15.53;100.00
43119;BME280;28729;49.838;8.650;2022-10-16T22:54:09;100112.19;;;15.51;100.00